ADDS METAR Data INFO
IDs: Format: Raw Decoded Include TAF

Data at: 0753 UTC 23 Jul 2018

KCGZ 230656Z AUTO 28008KT 10SM CLR 33/12 A2990 RMK AO2 SLP105 T03330122 404110256 $
KCGZ 230556Z AUTO 28006KT 10SM CLR 33/11 A2991 RMK AO2 SLP109 T03330111 10406 20333 50009 $
KCGZ 230456Z AUTO 24004KT 10SM CLR 34/11 A2993 RMK AO2 SLP114 T03440111 $
KCGZ 230356Z AUTO 25003KT 7SM CLR 36/12 A2991 RMK AO2 SLP109 T03560122 $
KCGZ 230256Z AUTO 25006KT 10SM CLR 37/13 A2989 RMK AO2 SLP100 T03720128 55000 $
KCGZ 230156Z AUTO 25012KT 10SM CLR 39/12 A2987 RMK AO2 SLP096 T03890117 $
KCGZ 230056Z AUTO 26010KT 10SM CLR 40/11 A2988 RMK AO2 SLP098 T04000111 $
KCGZ 222356Z AUTO 27013KT 10SM CLR 41/11 A2989 RMK AO2 SLP101 6//// T04060111 10411 20361 56020 $
KCGZ 222256Z AUTO 27012KT 10SM CLR 41/12 A2990 RMK AO2 SLP107 T04060122 $
KCGZ 222156Z AUTO 30007KT 240V330 10SM CLR 41/11 A2993 RMK AO2 SLP114 T04060111 $
KCGZ 222056Z AUTO 25009G16KT 210V270 10SM CLR 39/12 A2995 RMK AO2 SLP121 T03940117 58020 $
KCGZ 221956Z AUTO 25013G19KT 10SM CLR 39/12 A2997 RMK AO2 SLP128 T03890117 $
KCGZ 221856Z AUTO VRB06KT 10SM CLR 37/13 A2999 RMK AO2 SLP137 T03720133 $
KCGZ 221756Z AUTO 27004KT 10SM CLR 36/16 A3001 RMK AO2 SLP143 T03610156 10367 20256 58004 $
KCGZ 221656Z AUTO 27004KT 10SM CLR 35/16 A3002 RMK AO2 SLP146 T03500156 $
KCGZ 221556Z AUTO 15003KT 10SM CLR 34/16 A3002 RMK AO2 SLP146 T03390161 $
KCGZ 221456Z AUTO 00000KT 10SM CLR 31/16 A3002 RMK AO2 SLP148 T03110156 51013 $
KCGZ 221356Z AUTO 23003KT 10SM CLR 29/15 A3001 RMK AO2 SLP144 T02890150 $
KCGZ 221256Z AUTO 00000KT 10SM CLR 26/15 A3000 RMK AO2 SLP143 T02610150 $
KCGZ 221156Z AUTO 00000KT 10SM CLR 26/14 A2998 RMK AO2 SLP136 7//// T02610139 10317 20261 53005 $
KCGZ 221056Z AUTO 00000KT 10SM CLR 28/14 A2997 RMK AO2 SLP132 T02780144 $
KCGZ 220956Z AUTO 00000KT 10SM CLR 28/14 A2997 RMK AO2 SLP132 T02830139 $
KCGZ 220856Z AUTO 26003KT 10SM CLR 29/14 A2997 RMK AO2 SLP130 T02940144 58001 $
KCGZ 220756Z AUTO 29005KT 10SM CLR 31/14 A2997 RMK AO2 SLP132 T03060144 $
KCGZ 220656Z AUTO 27007KT 10SM CLR 31/16 A2997 RMK AO2 SLP132 T03110161 403670244 $
KCGZ 220556Z AUTO 28008KT 10SM CLR 32/18 A2997 RMK AO2 SLP131 6//// T03170178 10367 20317 50014 $
KCGZ 220456Z AUTO 28008KT 10SM CLR 33/18 A2997 RMK AO2 SLP132 T03280183 $
KCGZ 220356Z AUTO 28008KT 10SM CLR 33/18 A2996 RMK AO2 SLP127 T03330178 $
KCGZ 220256Z AUTO 28010KT 10SM CLR 35/17 A2993 RMK AO2 SLP117 T03500167 53005 $
KCGZ 220156Z AUTO 28013KT 10SM CLR 36/17 A2991 RMK AO2 SLP112 T03610167 $
KCGZ 220056Z AUTO 25009KT 10SM CLR 36/18 A2991 RMK AO2 SLP110 T03610178 $
KCGZ 212356Z AUTO 26008KT 10SM CLR 36/17 A2991 RMK AO2 SLP112 T03610172 10367 20317 56016 $
KCGZ 212256Z AUTO 24011KT 10SM CLR 36/19 A2992 RMK AO2 SLP113 T03610194 $
KCGZ 212156Z AUTO 30006KT 10SM CLR 36/18 A2994 RMK AO2 SLP118 T03610183 $
KCGZ 212056Z AUTO 30005KT 10SM CLR 34/19 A2996 RMK AO2 SLP127 T03440189 58020 $
KCGZ 211956Z AUTO 32005G14KT 10SM CLR 33/19 A2999 RMK AO2 SLP136 T03330189 $